Nearby METAR Reports

 

LEGE - Gerona/Costa Bra, Spain
Distance from station: S 12km
Updated: 21/09/2019 02:00
Mostly cloudy
Mostly cloudy
 Wind from NNW
Wind: NNW 6 km/h
Temperature: 66°F , 19°C
Dew Point: 63°F , 17°C
Humidity: 88%
Barometer: 1018 hPa
Clouds: Mostly cloudy
Visibility: 10 km
Cloud details: Few Clouds 1600 ft
Mostly cloudy 2500 ft
2019/09/21 00:00 LEGE 210000Z 33003KT 290V010 9999 FEW016 BKN025 19/17 Q1018